createdAt,value
2018-12-09T00:00:15.641Z,39.10
2018-12-09T00:02:44.078Z,39.10
2018-12-09T00:05:12.583Z,39.00
2018-12-09T00:07:40.930Z,39.00
2018-12-09T00:10:09.449Z,39.00
2018-12-09T00:12:38.038Z,39.00
2018-12-09T00:15:06.463Z,39.10
2018-12-09T00:17:34.840Z,39.10
2018-12-09T00:20:03.548Z,39.10
2018-12-09T00:22:31.926Z,39.10
2018-12-09T00:25:00.260Z,39.10
2018-12-09T00:27:28.676Z,39.10
2018-12-09T00:29:57.086Z,39.00
2018-12-09T00:32:25.594Z,39.00
2018-12-09T00:34:53.935Z,39.00
2018-12-09T00:37:22.286Z,39.00
2018-12-09T00:39:50.727Z,39.00
2018-12-09T00:42:19.077Z,38.90
2018-12-09T00:44:47.683Z,39.00
2018-12-09T00:47:16.046Z,38.90
2018-12-09T00:49:44.531Z,38.90
2018-12-09T00:52:12.883Z,39.00
2018-12-09T00:54:41.363Z,39.00
2018-12-09T00:57:09.767Z,39.00
2018-12-09T00:59:38.113Z,39.00
2018-12-09T01:02:08.452Z,39.10
2018-12-09T01:04:36.841Z,39.10
2018-12-09T01:07:05.327Z,39.00
2018-12-09T01:09:33.923Z,39.00
2018-12-09T01:12:02.275Z,39.00
2018-12-09T01:14:30.633Z,39.00
2018-12-09T01:16:58.979Z,39.00
2018-12-09T01:19:27.331Z,39.60
2018-12-09T01:21:55.689Z,39.00
2018-12-09T01:24:24.071Z,39.00
2018-12-09T01:26:52.439Z,39.00
2018-12-09T01:29:20.769Z,39.10
2018-12-09T01:31:49.097Z,39.10
2018-12-09T01:34:17.683Z,39.10
2018-12-09T01:36:46.043Z,39.00
2018-12-09T01:39:14.661Z,38.90
2018-12-09T01:41:43.139Z,38.90
2018-12-09T01:44:11.492Z,38.80
2018-12-09T01:46:40.056Z,38.90
2018-12-09T01:49:08.386Z,38.90
2018-12-09T01:51:36.850Z,38.80
2018-12-09T01:54:09.854Z,38.90
2018-12-09T01:56:39.372Z,38.90
2018-12-09T01:59:07.709Z,38.90
2018-12-09T02:01:36.070Z,38.50
2018-12-09T02:04:04.574Z,39.00
2018-12-09T02:06:33.436Z,39.00
2018-12-09T02:09:01.792Z,39.00
2018-12-09T02:11:30.144Z,38.90
2018-12-09T02:13:58.509Z,38.90
2018-12-09T02:16:26.982Z,38.90
2018-12-09T02:19:05.857Z,39.50
2018-12-09T02:21:34.212Z,38.80
2018-12-09T02:24:02.737Z,38.80
2018-12-09T02:26:31.787Z,38.90
2018-12-09T02:29:00.346Z,38.80
2018-12-09T02:31:28.828Z,38.90
2018-12-09T02:33:57.409Z,38.90
2018-12-09T02:36:26.019Z,38.90
2018-12-09T02:38:54.422Z,38.90
2018-12-09T02:41:22.761Z,38.90
2018-12-09T02:43:51.102Z,38.90
2018-12-09T02:46:19.429Z,38.90
2018-12-09T02:48:48.378Z,38.80
2018-12-09T02:51:16.710Z,38.80
2018-12-09T02:53:45.132Z,38.80
2018-12-09T02:56:13.637Z,38.80
2018-12-09T02:58:42.014Z,38.80
2018-12-09T03:01:10.407Z,38.80
2018-12-09T03:03:38.750Z,38.80
2018-12-09T03:06:07.242Z,38.80
2018-12-09T03:08:35.564Z,38.80
2018-12-09T03:11:04.220Z,38.80
2018-12-09T03:13:32.570Z,38.80
2018-12-09T03:16:00.915Z,38.80
2018-12-09T03:18:29.281Z,38.80
2018-12-09T03:20:57.620Z,38.80
2018-12-09T03:23:25.950Z,38.90
2018-12-09T03:25:54.295Z,38.80
2018-12-09T03:28:22.628Z,38.80
2018-12-09T03:30:50.998Z,39.40
2018-12-09T03:33:19.350Z,38.70
2018-12-09T03:35:47.779Z,38.80
2018-12-09T03:38:16.116Z,38.80
2018-12-09T03:40:44.448Z,38.80
2018-12-09T03:43:12.784Z,38.80
2018-12-09T03:45:43.480Z,38.80
2018-12-09T03:48:12.129Z,38.80
2018-12-09T03:50:40.475Z,38.80
2018-12-09T03:53:08.891Z,38.80
2018-12-09T03:55:37.546Z,38.80
2018-12-09T03:58:05.880Z,38.70
2018-12-09T04:00:34.306Z,38.70
2018-12-09T04:03:02.652Z,38.70
2018-12-09T04:05:31.000Z,38.70
2018-12-09T04:07:59.334Z,38.70
2018-12-09T04:10:27.683Z,38.70
2018-12-09T04:12:56.011Z,38.70
2018-12-09T04:15:24.520Z,38.70
2018-12-09T04:17:52.859Z,38.80
2018-12-09T04:20:21.720Z,38.80
2018-12-09T04:22:50.255Z,38.80
2018-12-09T04:25:18.594Z,38.80
2018-12-09T04:27:46.929Z,38.80
2018-12-09T04:30:15.489Z,38.70
2018-12-09T04:32:44.165Z,38.70
2018-12-09T04:35:12.509Z,38.70
2018-12-09T04:37:40.860Z,38.60
2018-12-09T04:40:09.198Z,38.60
2018-12-09T04:42:37.527Z,38.70
2018-12-09T04:45:06.042Z,38.70
2018-12-09T04:47:34.386Z,39.30
2018-12-09T04:50:03.014Z,38.70
2018-12-09T04:52:31.371Z,38.70
2018-12-09T04:54:59.718Z,38.70
2018-12-09T04:57:28.055Z,38.80
2018-12-09T05:00:04.357Z,38.70
2018-12-09T05:02:32.700Z,38.70
2018-12-09T05:05:01.073Z,38.90
2018-12-09T05:07:29.408Z,38.60
2018-12-09T05:09:57.736Z,39.20
2018-12-09T05:12:26.071Z,38.60
2018-12-09T05:14:54.413Z,38.70
2018-12-09T05:17:23.274Z,38.60
2018-12-09T05:19:51.612Z,38.70
2018-12-09T05:22:19.938Z,38.60
2018-12-09T05:24:48.275Z,38.70
2018-12-09T05:27:16.614Z,38.70
2018-12-09T05:29:45.580Z,38.80
2018-12-09T05:32:13.917Z,38.70
2018-12-09T05:34:42.245Z,38.70
2018-12-09T05:37:10.573Z,38.70
2018-12-09T05:39:39.033Z,38.60
2018-12-09T05:42:07.382Z,38.50
2018-12-09T05:44:35.711Z,38.60
2018-12-09T05:47:04.042Z,38.50
2018-12-09T05:49:32.381Z,38.60
2018-12-09T05:52:00.736Z,38.60
2018-12-09T05:54:29.083Z,38.60
2018-12-09T05:56:57.413Z,38.60
2018-12-09T05:59:25.765Z,39.40
2018-12-09T06:02:01.983Z,38.70
2018-12-09T06:04:30.768Z,37.90
2018-12-09T06:06:59.267Z,39.00
2018-12-09T06:09:27.596Z,40.20
2018-12-09T06:11:55.921Z,41.00
2018-12-09T06:14:24.268Z,41.60
2018-12-09T06:16:52.977Z,42.00
2018-12-09T06:19:21.423Z,42.20
2018-12-09T06:21:50.035Z,42.40
2018-12-09T06:24:18.452Z,42.40
2018-12-09T06:26:46.843Z,42.50
2018-12-09T06:29:15.173Z,42.60
2018-12-09T06:31:43.599Z,42.90
2018-12-09T06:34:11.932Z,41.90
2018-12-09T06:36:40.259Z,40.50
2018-12-09T06:39:08.599Z,40.80
2018-12-09T06:41:36.937Z,42.70
2018-12-09T06:44:05.476Z,43.70
2018-12-09T06:46:34.004Z,44.10
2018-12-09T06:49:02.385Z,44.30
2018-12-09T06:51:31.249Z,44.40
2018-12-09T06:53:59.598Z,44.90
2018-12-09T06:56:28.416Z,44.70
2018-12-09T06:58:56.745Z,45.30
2018-12-09T07:01:25.089Z,45.30
2018-12-09T07:03:53.476Z,45.80
2018-12-09T07:06:21.976Z,46.00
2018-12-09T07:08:50.382Z,46.00
2018-12-09T07:11:18.796Z,46.00
2018-12-09T07:13:47.131Z,46.10
2018-12-09T07:16:15.591Z,46.20
2018-12-09T07:18:44.145Z,46.10
2018-12-09T07:21:12.492Z,46.00
2018-12-09T07:23:40.823Z,45.50
2018-12-09T07:26:09.183Z,45.00
2018-12-09T07:28:37.554Z,44.90
2018-12-09T07:31:05.890Z,45.10
2018-12-09T07:33:34.452Z,45.60
2018-12-09T07:36:03.026Z,46.40
2018-12-09T07:38:31.599Z,46.30
2018-12-09T07:40:59.978Z,46.30
2018-12-09T07:43:28.347Z,46.40
2018-12-09T07:45:56.678Z,46.30
2018-12-09T07:48:25.037Z,46.60
2018-12-09T07:50:56.325Z,46.90
2018-12-09T07:53:25.510Z,47.10
2018-12-09T07:55:54.050Z,46.40
2018-12-09T07:58:22.391Z,46.10
2018-12-09T08:00:50.909Z,46.30
2018-12-09T08:03:19.335Z,46.20
2018-12-09T08:05:47.879Z,47.00
2018-12-09T08:08:16.220Z,47.30
2018-12-09T08:10:44.573Z,47.30
2018-12-09T08:13:13.033Z,46.00
2018-12-09T08:15:41.373Z,43.50
2018-12-09T08:18:09.711Z,44.80
2018-12-09T08:20:38.072Z,45.70
2018-12-09T08:23:06.617Z,45.10
2018-12-09T08:25:35.050Z,42.60
2018-12-09T08:28:03.393Z,43.00
2018-12-09T08:30:31.742Z,44.80
2018-12-09T08:33:00.242Z,45.20
2018-12-09T08:35:28.597Z,45.50
2018-12-09T08:37:56.933Z,45.60
2018-12-09T08:40:25.305Z,45.60
2018-12-09T08:42:53.626Z,45.50
2018-12-09T08:45:21.993Z,45.60
2018-12-09T08:47:50.329Z,45.90
2018-12-09T08:50:18.665Z,46.00
2018-12-09T08:52:47.041Z,46.20
2018-12-09T08:55:15.411Z,46.80
2018-12-09T08:57:43.745Z,46.90
2018-12-09T09:00:12.091Z,46.70
2018-12-09T09:02:40.519Z,45.20
2018-12-09T09:05:08.875Z,44.60
2018-12-09T09:07:37.209Z,42.80
2018-12-09T09:10:06.039Z,42.30
2018-12-09T09:12:34.386Z,42.10
2018-12-09T09:15:02.991Z,42.00
2018-12-09T09:17:31.369Z,41.70
2018-12-09T09:19:59.876Z,41.70
2018-12-09T09:22:28.206Z,41.60
2018-12-09T09:24:57.126Z,41.40
2018-12-09T09:27:25.478Z,41.10
2018-12-09T09:29:53.816Z,41.10
2018-12-09T09:32:22.727Z,41.00
2018-12-09T09:34:51.062Z,41.00
2018-12-09T09:37:19.439Z,40.90
2018-12-09T09:39:47.820Z,41.00
2018-12-09T09:42:16.179Z,40.90
2018-12-09T09:44:44.557Z,41.20
2018-12-09T09:47:12.916Z,40.70
2018-12-09T09:49:41.406Z,40.80
2018-12-09T09:52:09.762Z,41.40
2018-12-09T09:54:38.103Z,40.60
2018-12-09T09:57:06.456Z,40.50
2018-12-09T09:59:35.021Z,40.30
2018-12-09T10:02:03.552Z,40.30
2018-12-09T10:04:31.895Z,40.30
2018-12-09T10:07:00.244Z,40.10
2018-12-09T10:09:28.623Z,40.20
2018-12-09T10:11:56.977Z,40.20
2018-12-09T10:14:25.458Z,40.30
2018-12-09T10:16:53.902Z,40.20
2018-12-09T10:19:22.264Z,40.30
2018-12-09T10:21:50.614Z,40.20
2018-12-09T10:24:18.973Z,40.50
2018-12-09T10:26:47.326Z,40.20
2018-12-09T10:29:15.655Z,40.20
2018-12-09T10:31:43.998Z,40.20
2018-12-09T10:34:12.345Z,40.10
2018-12-09T10:36:40.770Z,40.10
2018-12-09T10:39:09.109Z,40.20
2018-12-09T10:41:37.459Z,40.10
2018-12-09T10:44:05.923Z,40.20
2018-12-09T10:46:34.251Z,40.20
2018-12-09T10:49:02.583Z,40.30
2018-12-09T10:51:30.934Z,40.40
2018-12-09T10:53:59.288Z,40.50
2018-12-09T10:56:27.631Z,40.60
2018-12-09T10:58:55.986Z,40.60
2018-12-09T11:01:29.309Z,41.40
2018-12-09T11:03:58.059Z,40.80
2018-12-09T11:06:26.789Z,40.90
2018-12-09T11:08:55.151Z,41.00
2018-12-09T11:11:23.799Z,40.80
2018-12-09T11:13:58.010Z,40.50
2018-12-09T11:16:22.850Z,40.70
2018-12-09T11:18:51.205Z,40.70
2018-12-09T11:21:19.540Z,40.70
2018-12-09T11:23:47.897Z,40.60
2018-12-09T11:26:16.232Z,40.60
2018-12-09T11:28:44.623Z,40.60
2018-12-09T11:31:13.132Z,40.60
2018-12-09T11:33:41.525Z,40.50
2018-12-09T11:36:09.865Z,41.30
2018-12-09T11:38:38.238Z,40.50
2018-12-09T11:41:06.602Z,40.40
2018-12-09T11:43:35.320Z,40.40
2018-12-09T11:46:04.006Z,40.30
2018-12-09T11:48:32.354Z,40.20
2018-12-09T11:51:00.702Z,40.10
2018-12-09T11:53:29.124Z,40.10
2018-12-09T11:55:57.508Z,40.10
2018-12-09T11:58:25.892Z,40.10
2018-12-09T12:00:54.225Z,40.10
2018-12-09T12:03:22.593Z,40.00
2018-12-09T12:05:50.984Z,40.00
2018-12-09T12:08:19.345Z,39.90
2018-12-09T12:10:48.286Z,39.80
2018-12-09T12:13:16.641Z,39.80
2018-12-09T12:15:44.994Z,39.80
2018-12-09T12:18:13.525Z,39.70
2018-12-09T12:20:41.902Z,39.70
2018-12-09T12:23:10.385Z,39.80
2018-12-09T12:25:38.784Z,39.70
2018-12-09T12:28:07.250Z,39.70
2018-12-09T12:30:35.625Z,39.70
2018-12-09T12:33:04.010Z,39.80
2018-12-09T12:35:32.434Z,39.70
2018-12-09T12:38:00.785Z,40.30
2018-12-09T12:40:29.758Z,39.70
2018-12-09T12:42:58.712Z,39.60
2018-12-09T12:45:28.352Z,39.50
2018-12-09T12:47:57.360Z,39.50
2018-12-09T12:50:26.003Z,39.60
2018-12-09T12:52:54.415Z,39.50
2018-12-09T12:55:22.752Z,39.60
2018-12-09T12:57:51.100Z,39.60
2018-12-09T13:00:19.456Z,39.60
2018-12-09T13:02:47.794Z,39.60
2018-12-09T13:05:16.414Z,40.10
2018-12-09T13:07:44.879Z,39.60
2018-12-09T13:10:13.259Z,39.50
2018-12-09T13:12:41.577Z,39.50
2018-12-09T13:15:10.025Z,39.50
2018-12-09T13:17:38.376Z,39.40
2018-12-09T13:20:07.352Z,39.50
2018-12-09T13:22:35.917Z,39.40
2018-12-09T13:25:04.957Z,39.50
2018-12-09T13:27:33.285Z,39.50
2018-12-09T13:30:01.793Z,39.40
2018-12-09T13:32:30.144Z,39.40
2018-12-09T13:34:58.581Z,39.40
2018-12-09T13:37:26.924Z,39.30
2018-12-09T13:39:55.329Z,39.20
2018-12-09T13:42:23.668Z,39.20
2018-12-09T13:44:52.011Z,39.10
2018-12-09T13:47:20.340Z,39.00
2018-12-09T13:49:48.707Z,39.00
2018-12-09T13:52:17.056Z,39.00
2018-12-09T13:54:45.517Z,39.00
2018-12-09T13:57:13.858Z,38.90
2018-12-09T13:59:42.934Z,39.00
2018-12-09T14:02:11.360Z,38.90
2018-12-09T14:04:39.771Z,39.00
2018-12-09T14:07:08.327Z,39.00
2018-12-09T14:09:36.667Z,39.00
2018-12-09T14:12:05.182Z,39.00
2018-12-09T14:14:33.513Z,39.10
2018-12-09T14:17:01.970Z,39.00
2018-12-09T14:19:30.415Z,38.90
2018-12-09T14:21:58.791Z,38.90
2018-12-09T14:24:27.381Z,38.80
2018-12-09T14:26:55.724Z,38.70
2018-12-09T14:29:24.066Z,38.80
2018-12-09T14:31:52.503Z,38.70
2018-12-09T14:34:20.889Z,38.80
2018-12-09T14:36:49.272Z,38.80
2018-12-09T14:39:17.753Z,38.80
2018-12-09T14:41:46.132Z,38.80
2018-12-09T14:44:14.580Z,39.40
2018-12-09T14:46:42.951Z,38.70
2018-12-09T14:49:11.392Z,38.70
2018-12-09T14:51:39.719Z,38.60
2018-12-09T14:54:08.072Z,38.60
2018-12-09T14:56:36.430Z,38.40
2018-12-09T14:59:04.791Z,38.40
2018-12-09T15:01:33.420Z,37.70
2018-12-09T15:04:01.948Z,38.40
2018-12-09T15:06:30.317Z,38.40
2018-12-09T15:08:58.664Z,38.40
2018-12-09T15:11:27.182Z,38.50
2018-12-09T15:13:55.601Z,38.50
2018-12-09T15:16:24.073Z,38.60
2018-12-09T15:18:52.532Z,38.70
2018-12-09T15:21:21.213Z,38.70
2018-12-09T15:23:49.698Z,38.60
2018-12-09T15:26:18.596Z,38.70
2018-12-09T15:28:46.951Z,38.60
2018-12-09T15:31:15.377Z,38.60
2018-12-09T15:33:43.733Z,38.50
2018-12-09T15:36:12.208Z,38.50
2018-12-09T15:38:41.585Z,38.90
2018-12-09T15:41:10.191Z,38.50
2018-12-09T15:43:38.561Z,38.50
2018-12-09T15:46:06.914Z,38.50
2018-12-09T15:48:35.523Z,38.60
2018-12-09T15:51:04.595Z,38.60
2018-12-09T15:53:33.715Z,38.60
2018-12-09T15:56:02.174Z,38.40
2018-12-09T15:58:30.880Z,38.40
2018-12-09T16:00:59.276Z,38.40
2018-12-09T16:03:27.650Z,38.40
2018-12-09T16:05:56.038Z,38.40
2018-12-09T16:08:24.546Z,38.30
2018-12-09T16:10:52.887Z,38.30
2018-12-09T16:13:21.230Z,38.40
2018-12-09T16:15:49.590Z,38.30
2018-12-09T16:18:18.033Z,38.30
2018-12-09T16:20:46.404Z,38.30
2018-12-09T16:23:14.939Z,38.40
2018-12-09T16:25:43.657Z,38.40
2018-12-09T16:28:12.011Z,38.40
2018-12-09T16:30:40.364Z,38.40
2018-12-09T16:33:08.717Z,38.30
2018-12-09T16:35:37.070Z,38.20
2018-12-09T16:38:05.541Z,38.10
2018-12-09T16:40:33.926Z,38.10
2018-12-09T16:43:02.272Z,38.10
2018-12-09T16:45:30.628Z,38.10
2018-12-09T16:47:59.020Z,38.00
2018-12-09T16:50:27.446Z,38.20
2018-12-09T16:52:55.920Z,38.20
2018-12-09T16:55:24.272Z,38.20
2018-12-09T16:57:52.617Z,38.20
2018-12-09T17:00:20.973Z,38.00
2018-12-09T17:02:49.541Z,38.10
2018-12-09T17:05:17.907Z,37.60
2018-12-09T17:07:46.294Z,37.80
2018-12-09T17:10:14.671Z,37.50
2018-12-09T17:12:43.156Z,37.30
2018-12-09T17:15:11.869Z,37.70
2018-12-09T17:17:40.554Z,38.90
2018-12-09T17:20:08.993Z,39.60
2018-12-09T17:22:37.143Z,40.20
2018-12-09T17:25:05.519Z,40.60
2018-12-09T17:27:33.676Z,40.90
2018-12-09T17:30:02.031Z,41.00
2018-12-09T17:32:30.302Z,41.10
2018-12-09T17:34:58.558Z,41.80
2018-12-09T17:37:26.722Z,42.50
2018-12-09T17:39:54.866Z,42.20
2018-12-09T17:42:23.000Z,42.30
2018-12-09T17:44:51.121Z,42.70
2018-12-09T17:47:19.308Z,42.60
2018-12-09T17:49:48.024Z,42.90
2018-12-09T17:52:16.370Z,43.00
2018-12-09T17:54:44.704Z,43.10
2018-12-09T17:57:13.180Z,42.90
2018-12-09T17:59:41.515Z,43.70
2018-12-09T18:02:10.007Z,43.20
2018-12-09T18:04:38.373Z,43.10
2018-12-09T18:07:06.698Z,42.90
2018-12-09T18:09:35.061Z,42.90
2018-12-09T18:12:03.728Z,42.70
2018-12-09T18:14:32.069Z,42.90
2018-12-09T18:17:00.434Z,42.70
2018-12-09T18:19:28.798Z,42.80
2018-12-09T18:21:57.157Z,42.70
2018-12-09T18:24:25.519Z,42.70
2018-12-09T18:26:53.855Z,42.70
2018-12-09T18:29:22.200Z,42.70
2018-12-09T18:31:50.623Z,42.70
2018-12-09T18:34:19.242Z,42.80
2018-12-09T18:36:47.677Z,42.90
2018-12-09T18:39:16.027Z,42.70
2018-12-09T18:41:44.371Z,42.70
2018-12-09T18:44:12.741Z,42.60
2018-12-09T18:46:41.715Z,42.90
2018-12-09T18:49:10.053Z,42.80
2018-12-09T18:51:38.386Z,42.80
2018-12-09T18:54:06.743Z,43.10
2018-12-09T18:56:35.078Z,43.00
2018-12-09T18:59:03.415Z,42.90
2018-12-09T19:01:31.766Z,43.00
2018-12-09T19:04:00.131Z,43.00
2018-12-09T19:06:28.557Z,43.00
2018-12-09T19:08:56.883Z,42.90
2018-12-09T19:11:25.312Z,43.00
2018-12-09T19:13:53.922Z,42.90
2018-12-09T19:16:22.385Z,42.90
2018-12-09T19:18:50.795Z,43.70
2018-12-09T19:21:19.154Z,43.00
2018-12-09T19:23:47.501Z,43.00
2018-12-09T19:26:16.814Z,43.00
2018-12-09T19:28:45.502Z,43.10
2018-12-09T19:31:13.865Z,43.10
2018-12-09T19:33:42.225Z,43.10
2018-12-09T19:36:10.737Z,42.90
2018-12-09T19:38:40.327Z,42.90
2018-12-09T19:41:08.954Z,42.80
2018-12-09T19:43:37.326Z,42.70
2018-12-09T19:46:05.799Z,43.00
2018-12-09T19:48:34.138Z,42.90
2018-12-09T19:51:03.868Z,43.00
2018-12-09T19:53:32.461Z,42.90
2018-12-09T19:56:00.849Z,42.80
2018-12-09T19:58:29.210Z,42.70
2018-12-09T20:00:57.581Z,42.70
2018-12-09T20:03:26.034Z,42.80
2018-12-09T20:05:54.406Z,42.90
2018-12-09T20:08:22.835Z,42.70
2018-12-09T20:10:51.191Z,42.60
2018-12-09T20:13:19.693Z,42.70
2018-12-09T20:15:48.326Z,42.80
2018-12-09T20:18:16.758Z,42.70
2018-12-09T20:20:45.111Z,42.70
2018-12-09T20:23:13.722Z,42.70
2018-12-09T20:25:42.053Z,42.50
2018-12-09T20:28:10.382Z,42.80
2018-12-09T20:30:38.746Z,42.90
2018-12-09T20:33:07.093Z,43.30
2018-12-09T20:35:35.463Z,42.80
2018-12-09T20:38:04.109Z,42.80
2018-12-09T20:40:32.974Z,43.00
2018-12-09T20:43:01.322Z,43.00
2018-12-09T20:45:29.926Z,42.90
2018-12-09T20:47:58.430Z,43.00
2018-12-09T20:50:26.863Z,42.80
2018-12-09T20:52:55.231Z,42.80
2018-12-09T20:55:23.570Z,42.60
2018-12-09T20:57:51.917Z,42.70
2018-12-09T21:00:20.864Z,42.60
2018-12-09T21:02:49.244Z,42.70
2018-12-09T21:05:17.892Z,42.60
2018-12-09T21:07:46.284Z,42.60
2018-12-09T21:10:14.628Z,42.60
2018-12-09T21:12:42.972Z,43.00
2018-12-09T21:15:11.609Z,42.60
2018-12-09T21:17:39.983Z,42.80
2018-12-09T21:20:08.418Z,42.60
2018-12-09T21:22:36.764Z,42.60
2018-12-09T21:25:05.736Z,42.50
2018-12-09T21:27:34.331Z,42.50
2018-12-09T21:30:02.870Z,42.50
2018-12-09T21:32:31.384Z,42.50
2018-12-09T21:34:59.728Z,42.50
2018-12-09T21:37:28.278Z,42.50
2018-12-09T21:39:57.522Z,42.40
2018-12-09T21:42:25.865Z,42.50
2018-12-09T21:44:54.210Z,42.60
2018-12-09T21:47:22.572Z,40.60
2018-12-09T21:49:50.923Z,40.30
2018-12-09T21:52:19.260Z,40.70
2018-12-09T21:54:47.613Z,41.30
2018-12-09T21:57:16.276Z,41.40
2018-12-09T21:59:44.634Z,41.60
2018-12-09T22:02:13.051Z,41.60
2018-12-09T22:04:41.395Z,41.80
2018-12-09T22:07:09.728Z,41.90
2018-12-09T22:09:38.095Z,42.50
2018-12-09T22:12:06.444Z,42.10
2018-12-09T22:14:34.861Z,42.00
2018-12-09T22:17:04.303Z,42.10
2018-12-09T22:19:32.697Z,42.10
2018-12-09T22:22:01.041Z,42.30
2018-12-09T22:24:30.403Z,42.20
2018-12-09T22:26:58.756Z,42.10
2018-12-09T22:29:27.921Z,42.20
2018-12-09T22:31:56.295Z,42.20
2018-12-09T22:34:24.831Z,42.30
2018-12-09T22:36:53.177Z,42.40
2018-12-09T22:39:21.525Z,42.30
2018-12-09T22:41:49.880Z,42.30
2018-12-09T22:44:18.237Z,42.30
2018-12-09T22:46:46.579Z,42.30
2018-12-09T22:49:14.935Z,42.40
2018-12-09T22:51:44.303Z,42.40
2018-12-09T22:54:12.689Z,42.30
2018-12-09T22:56:41.031Z,42.30
2018-12-09T22:59:09.352Z,42.90
2018-12-09T23:01:39.674Z,42.40
2018-12-09T23:04:08.247Z,42.30
2018-12-09T23:06:36.570Z,42.40
2018-12-09T23:09:05.668Z,42.40
2018-12-09T23:11:34.023Z,42.50
2018-12-09T23:14:02.440Z,42.50
2018-12-09T23:16:30.780Z,42.60
2018-12-09T23:18:59.138Z,42.60
2018-12-09T23:21:27.466Z,42.80
2018-12-09T23:23:55.811Z,42.70
2018-12-09T23:26:24.149Z,42.80
2018-12-09T23:28:52.646Z,42.70
2018-12-09T23:31:21.130Z,42.70
2018-12-09T23:33:49.490Z,42.80
2018-12-09T23:36:17.837Z,42.60
2018-12-09T23:38:46.173Z,42.50
2018-12-09T23:41:14.597Z,42.60
2018-12-09T23:43:42.944Z,42.50
2018-12-09T23:46:11.301Z,42.40
2018-12-09T23:48:39.653Z,42.90
2018-12-09T23:51:08.082Z,42.40
2018-12-09T23:53:37.085Z,42.40
2018-12-09T23:56:05.431Z,42.50
2018-12-09T23:58:33.984Z,42.50
